LFBLLFBH

Guest
Details From LFBL - Limoges Bellegarde
To LFBH - La Rochelle Laleu
Flight Number -
Tags generated
Created
Modified
Stats Distance 101 nm / 187 km
Max Altitude 3,200 ft / 975 m
Waypoints 3
Social Downloads 1
Likes 0
Share VATSIM

Download

Looking for another format? Having issues loading an existing format? Contact us
Advertisement - Login to hide

Notes

Basic altitude profile: - Ascent Rate: 2500ft/min - Ascent Speed: 250kts - Cruise Altitude: 7500ft - Cruise Speed: 420kts - Descent Rate: 1500ft/min - Descent Speed: 250kts

Route

LFBL ADILU LFBH

ID Type Via Altitude Latitude Longitude Leg Dist Tot Dist Heading (true) Name
O LFBL APT - 0 ft / 0 m 45.86190˚ 1.18137˚ - 0 nm - Limoges Bellegarde
ADILU FIX - 3,200 ft / 975 m 46.12417˚ -0.83944˚ 85 nm 85 nm 281° / 280° -
O LFBH APT - 0 ft / 0 m 46.17924˚ -1.19641˚ 15 nm 100 nm 283° / 282° La Rochelle Laleu

Altitude Profile

Advertisement - Login to hide

LFBL

Details ICAO LFBL (LIG)
Name Limoges Bellegarde
Region France
Timezone Europe/Paris (UTC+1.0)
Stats Elevation 1,300 ft / 396 m (AMSL)
Location 45.861896° 1.181368°
Runways 1
Magnetic Variation 0.423° E

METAR

LFBL 162100Z AUTO 31005KT 9999 OVC013 02/00 Q1025 TEMPO 3000 BR OVC003

Decode

TAF

TAF AMD LFBL 162035Z 1620/1718 29005KT 9999 BKN014 PROB40 TEMPO 1622/1705 3000 BR OVC003 PROB30 TEMPO 1701/1705 0800 FG VV/// BECMG 1705/1707 2000 -SN OVC003 BECMG 1707/1709 6000 NSW OVC005 TEMPO 1709/1718 1600 -RADZ OVC002

Decode

Departure Runways

ID Width Length Bearing (true) Bearing (mag) Surface Threshold Offset Overrun Length
03 148 ft / 45 m 8,202 ft / 2,500 m 33.16° 32.74° Asphalt 0 ft / 0 m 0 ft / 0 m
21 148 ft / 45 m 8,202 ft / 2,500 m 213.18° 212.76° Asphalt 196 ft / 60 m 0 ft / 0 m

LFBH

Details ICAO LFBH (LRH)
Name La Rochelle Laleu
Region France
Timezone Europe/Paris (UTC+1.0)
Stats Elevation 74 ft / 23 m (AMSL)
Location 46.179245° -1.196410°
Runways 1
Magnetic Variation 0.301° W

METAR

LFBH 162100Z AUTO 32006KT CAVOK 06/04 Q1027 NOSIG

Decode

TAF

TAF LFBH 161700Z 1618/1718 35008KT CAVOK BECMG 1705/1706 OVC040 PROB40 TEMPO 1706/1709 4000 -RA BKN014 BECMG 1714/1716 20008KT

Decode

Destination Runways

ID Width Length Bearing (true) Bearing (mag) Surface Threshold Offset Overrun Length
10 148 ft / 45 m 7,383 ft / 2,250 m 92.43° 92.73° Asphalt 1,033 ft / 315 m 0 ft / 0 m
28 148 ft / 45 m 7,383 ft / 2,250 m 272.45° 272.75° Asphalt 1,532 ft / 467 m 0 ft / 0 m

Approach Navaids

Runway Type Ident Frequency Range Bearing (true) Bearing (mag) Slope Elevation
28 Localiser RL 109.55 MHz 18 nm / 33 km 272.43° 272.73° - 72 ft / 22 m (AMSL)
28 Glidescope RL 109.55 MHz 10 nm / 19 km 272.44° 272.74° 3.10° 108 ft / 33 m (AMSL)
28 DME RL 109.55 MHz 18 nm / 33 km - - - 66 ft / 20 m (AMSL)